createdAt,value
2018-06-24T03:52:10.678Z,3.77
2018-06-24T03:55:10.549Z,3.60
2018-06-24T04:51:55.889Z,2.60
2018-06-24T06:12:06.279Z,4.03
2018-06-24T06:54:26.438Z,3.37
2018-06-24T07:00:14.554Z,2.80
2018-06-24T07:04:54.437Z,3.47
2018-06-24T07:08:05.815Z,2.80
2018-06-24T07:35:03.627Z,2.40
2018-06-24T07:39:33.620Z,2.60
2018-06-24T08:00:12.934Z,3.10
2018-06-24T08:42:45.771Z,3.70
2018-06-24T09:03:59.753Z,4.50
2018-06-24T09:06:38.334Z,3.17
2018-06-24T09:09:14.714Z,4.67
2018-06-24T09:11:48.776Z,5.80
2018-06-24T09:14:25.659Z,5.37
2018-06-24T09:16:58.921Z,6.07
2018-06-24T09:19:32.876Z,5.33
2018-06-24T09:22:18.112Z,5.10
2018-06-24T09:24:51.356Z,4.43
2018-06-24T09:27:25.083Z,4.87
2018-06-24T09:30:21.071Z,6.20
2018-06-24T09:32:55.837Z,5.60
2018-06-24T09:35:28.897Z,4.10
2018-06-24T09:40:46.222Z,5.30
2018-06-24T09:43:31.667Z,4.30
2018-06-24T09:46:05.810Z,5.50
2018-06-24T09:51:22.962Z,4.67
2018-06-24T09:54:00.889Z,5.03
2018-06-24T09:56:44.572Z,4.37
2018-06-24T10:00:29.885Z,4.43
2018-06-24T10:03:05.660Z,5.83
2018-06-24T10:05:59.395Z,6.20
2018-06-24T10:08:52.949Z,5.40
2018-06-24T10:11:27.333Z,5.07
2018-06-24T10:14:11.542Z,5.67
2018-06-24T10:16:56.105Z,5.40
2018-06-24T10:19:32.308Z,4.63
2018-06-24T10:22:25.980Z,5.50
2018-06-24T10:25:02.655Z,4.33
2018-06-24T10:27:52.183Z,4.20
2018-06-24T10:31:03.912Z,4.73
2018-06-24T10:33:50.022Z,4.30
2018-06-24T10:42:02.372Z,3.63
2018-06-24T10:44:40.939Z,2.90
2018-06-24T10:47:16.329Z,3.60
2018-06-24T10:49:54.981Z,2.77
2018-06-24T10:52:30.251Z,4.00
2018-06-24T10:55:22.324Z,2.40
2018-06-24T11:08:03.626Z,2.70
2018-06-24T11:10:46.054Z,2.73
2018-06-24T11:13:40.741Z,3.33
2018-06-24T11:16:15.567Z,3.03
2018-06-24T11:24:38.341Z,2.60
2018-06-24T11:27:24.880Z,2.70
2018-06-24T11:30:12.331Z,2.93
2018-06-24T11:35:54.094Z,2.67
2018-06-24T11:41:24.595Z,2.40
2018-06-24T11:46:52.685Z,2.23
2018-06-24T11:49:45.712Z,2.40
2018-06-24T11:52:31.670Z,2.40
2018-06-24T11:55:07.006Z,1.80
2018-06-24T11:58:00.180Z,2.47
2018-06-24T12:00:49.370Z,1.67
2018-06-24T12:03:37.238Z,1.90
2018-06-24T12:12:52.427Z,1.33
2018-06-24T12:15:29.888Z,2.13
2018-06-24T12:18:04.372Z,2.20
2018-06-24T12:20:37.713Z,1.70
2018-06-24T12:23:14.499Z,2.40
2018-06-24T12:25:53.361Z,1.67
2018-06-24T12:31:24.081Z,1.60
2018-06-24T12:33:53.481Z,1.93
2018-06-24T12:36:36.333Z,2.10
2018-06-24T12:39:12.310Z,1.63
2018-06-24T12:41:48.443Z,1.40
2018-06-24T12:44:21.335Z,1.73
2018-06-24T12:46:54.235Z,2.30
2018-06-24T12:49:27.111Z,1.67
2018-06-24T12:52:09.098Z,1.83
2018-06-24T12:54:46.904Z,1.93
2018-06-24T12:57:20.278Z,2.13
2018-06-24T12:59:59.224Z,1.90
2018-06-24T13:02:39.550Z,2.33
2018-06-24T13:07:55.608Z,1.90
2018-06-24T13:10:44.190Z,1.77
2018-06-24T13:13:18.201Z,1.30
2018-06-24T13:15:55.598Z,2.13
2018-06-24T13:18:39.829Z,1.67
2018-06-24T13:21:14.760Z,1.47
2018-06-24T13:23:52.186Z,2.40
2018-06-24T13:26:26.300Z,2.23
2018-06-24T13:28:59.299Z,2.10
2018-06-24T13:31:34.707Z,1.97
2018-06-24T13:34:08.713Z,2.43
2018-06-24T13:36:41.914Z,1.80
2018-06-24T13:39:16.147Z,2.40
2018-06-24T13:41:57.862Z,1.67
2018-06-24T13:44:32.243Z,1.60
2018-06-24T13:47:16.713Z,2.03
2018-06-24T13:49:49.583Z,1.53
2018-06-24T13:52:34.015Z,1.80
2018-06-24T13:55:06.948Z,1.20
2018-06-24T13:57:41.271Z,1.50
2018-06-24T14:00:17.976Z,1.70
2018-06-24T14:03:03.943Z,1.50
2018-06-24T14:05:40.237Z,1.77
2018-06-24T14:08:19.893Z,1.50
2018-06-24T14:10:55.572Z,2.03
2018-06-24T14:13:31.679Z,1.50
2018-06-24T14:19:00.727Z,1.60
2018-06-24T14:21:35.041Z,1.70
2018-06-24T14:24:12.610Z,1.53
2018-06-24T14:26:50.968Z,2.03
2018-06-24T14:29:29.527Z,2.00
2018-06-24T14:32:09.329Z,1.33
2018-06-24T14:34:43.176Z,1.43
2018-06-24T14:37:17.395Z,1.80
2018-06-24T14:42:40.774Z,1.50
2018-06-24T14:45:15.008Z,1.40
2018-06-24T14:47:55.261Z,1.60
2018-06-24T14:50:42.163Z,1.33
2018-06-24T14:53:22.937Z,1.53
2018-06-24T14:55:56.222Z,1.63
2018-06-24T14:58:29.362Z,1.40
2018-06-24T15:01:02.392Z,1.23
2018-06-24T15:03:41.537Z,1.50
2018-06-24T15:08:56.119Z,2.90
2018-06-24T15:11:37.638Z,1.43
2018-06-24T15:14:12.171Z,2.03
2018-06-24T15:16:45.336Z,1.40
2018-06-24T15:19:30.483Z,1.70
2018-06-24T15:22:06.418Z,1.73
2018-06-24T15:24:41.629Z,1.50
2018-06-24T15:27:16.863Z,1.37
2018-06-24T15:29:51.707Z,1.37
2018-06-24T15:32:32.159Z,1.30
2018-06-24T15:35:06.026Z,1.20
2018-06-24T15:37:40.858Z,1.63
2018-06-24T15:40:13.845Z,1.87
2018-06-24T15:42:47.294Z,1.20
2018-06-24T15:48:03.549Z,1.67
2018-06-24T15:50:36.663Z,1.20
2018-06-24T15:53:10.885Z,1.27
2018-06-24T15:55:45.915Z,1.30
2018-06-24T15:58:19.154Z,1.40
2018-06-24T16:00:58.249Z,1.30
2018-06-24T16:03:31.197Z,1.53
2018-06-24T16:06:04.607Z,1.30
2018-06-24T16:08:38.909Z,1.10
2018-06-24T16:11:12.146Z,1.40
2018-06-24T16:13:48.770Z,1.17
2018-06-24T16:16:22.046Z,1.80
2018-06-24T16:18:56.332Z,1.40
2018-06-24T16:21:30.520Z,1.13
2018-06-24T16:24:03.655Z,1.20
2018-06-24T16:26:36.878Z,1.20
2018-06-24T16:29:13.980Z,1.30
2018-06-24T16:31:53.329Z,1.67
2018-06-24T16:34:27.047Z,2.10
2018-06-24T16:37:01.828Z,1.70
2018-06-24T16:39:35.192Z,2.23
2018-06-24T16:42:10.746Z,6.80
2018-06-24T16:44:45.776Z,4.70
2018-06-24T16:47:19.089Z,4.30
2018-06-24T16:49:53.321Z,2.50
2018-06-24T16:52:24.630Z,1.60
2018-06-24T16:54:58.612Z,2.07
2018-06-24T16:57:34.854Z,1.40
2018-06-24T17:00:08.273Z,1.37
2018-06-24T17:02:41.445Z,0.90
2018-06-24T17:05:16.743Z,1.60
2018-06-24T17:07:50.472Z,1.30
2018-06-24T17:10:23.528Z,1.07
2018-06-24T17:12:56.817Z,1.80
2018-06-24T17:15:29.994Z,1.30
2018-06-24T17:18:04.165Z,1.30
2018-06-24T17:20:39.178Z,1.40
2018-06-24T17:23:14.108Z,1.33
2018-06-24T17:25:45.136Z,1.40
2018-06-24T17:28:14.931Z,1.63
2018-06-24T17:30:44.444Z,1.30
2018-06-24T17:33:15.368Z,1.10
2018-06-24T17:35:44.934Z,1.40
2018-06-24T17:38:17.986Z,2.40
2018-06-24T17:40:52.461Z,2.70
2018-06-24T17:43:22.578Z,2.20
2018-06-24T17:45:51.974Z,2.47
2018-06-24T17:48:22.213Z,2.60
2018-06-24T17:50:52.128Z,3.00
2018-06-24T17:53:21.215Z,2.60
2018-06-24T17:55:50.455Z,1.80
2018-06-24T17:58:20.206Z,2.20
2018-06-24T18:00:52.044Z,1.67
2018-06-24T18:03:25.428Z,1.83
2018-06-24T18:05:55.776Z,1.70
2018-06-24T18:08:31.752Z,1.63
2018-06-24T18:11:01.088Z,2.07
2018-06-24T18:13:31.739Z,2.20
2018-06-24T18:16:01.378Z,2.53
2018-06-24T18:18:32.015Z,2.40
2018-06-24T18:21:01.447Z,1.97
2018-06-24T18:23:32.392Z,2.17
2018-06-24T18:26:03.536Z,1.50
2018-06-24T18:28:33.221Z,1.90
2018-06-24T18:31:04.229Z,1.73
2018-06-24T18:33:35.067Z,1.97
2018-06-24T18:36:06.509Z,1.37
2018-06-24T18:38:44.137Z,2.40
2018-06-24T18:41:23.008Z,1.70
2018-06-24T18:43:54.031Z,1.40
2018-06-24T18:46:33.730Z,1.40
2018-06-24T18:49:04.651Z,1.50
2018-06-24T18:51:36.493Z,1.23
2018-06-24T18:54:06.687Z,2.00
2018-06-24T18:56:37.082Z,2.20
2018-06-24T18:59:22.391Z,1.63
2018-06-24T19:02:00.204Z,1.50
2018-06-24T19:04:31.923Z,1.30
2018-06-24T19:07:03.001Z,1.50
2018-06-24T19:09:31.960Z,1.67
2018-06-24T19:12:02.164Z,1.87
2018-06-24T19:14:33.124Z,1.97
2018-06-24T19:17:03.277Z,2.03
2018-06-24T19:19:36.108Z,1.70
2018-06-24T19:22:05.337Z,1.53
2018-06-24T19:24:36.289Z,2.07
2018-06-24T19:27:08.415Z,1.90
2018-06-24T19:29:43.390Z,1.43
2018-06-24T19:32:15.093Z,1.80
2018-06-24T19:34:44.431Z,1.87
2018-06-24T19:37:15.008Z,1.50
2018-06-24T19:39:44.995Z,1.50
2018-06-24T19:42:19.683Z,1.90
2018-06-24T19:44:51.417Z,1.43
2018-06-24T19:47:25.260Z,1.70
2018-06-24T19:49:58.907Z,1.60
2018-06-24T19:52:28.738Z,2.10
2018-06-24T19:54:58.388Z,2.20
2018-06-24T19:57:28.136Z,4.60
2018-06-24T20:00:01.594Z,3.90
2018-06-24T20:02:31.925Z,3.17
2018-06-24T20:05:01.611Z,2.70
2018-06-24T20:07:31.636Z,2.33
2018-06-24T20:10:01.777Z,2.20
2018-06-24T20:12:30.997Z,2.17
2018-06-24T20:15:00.977Z,2.80
2018-06-24T20:17:30.586Z,2.40
2018-06-24T20:20:00.147Z,2.13
2018-06-24T20:22:29.253Z,2.60
2018-06-24T20:24:58.697Z,2.70
2018-06-24T20:30:17.780Z,2.97
2018-06-24T20:32:47.120Z,2.73
2018-06-24T20:35:16.160Z,2.57
2018-06-24T20:37:45.331Z,2.43
2018-06-24T20:40:14.386Z,2.70
2018-06-24T20:42:43.445Z,2.30
2018-06-24T20:45:12.550Z,1.93
2018-06-24T20:47:41.697Z,2.80
2018-06-24T20:50:10.725Z,2.83
2018-06-24T20:52:39.536Z,3.13
2018-06-24T20:55:08.467Z,2.83
2018-06-24T20:57:37.323Z,2.97
2018-06-24T21:00:06.974Z,3.00
2018-06-24T21:02:37.120Z,2.57
2018-06-24T21:05:09.444Z,2.80
2018-06-24T21:07:38.857Z,2.90
2018-06-24T21:10:08.017Z,3.70
2018-06-24T21:12:37.219Z,4.23
2018-06-24T21:15:06.497Z,4.30
2018-06-24T21:17:35.738Z,3.90
2018-06-24T21:20:05.145Z,3.30
2018-06-24T21:22:37.498Z,3.03
2018-06-24T21:25:06.576Z,2.67
2018-06-24T21:27:35.547Z,3.37
2018-06-24T21:30:04.744Z,3.53
2018-06-24T21:32:33.628Z,3.13
2018-06-24T21:35:02.674Z,2.87
2018-06-24T21:37:32.696Z,3.03
2018-06-24T21:40:02.806Z,3.20
2018-06-24T21:42:31.746Z,2.73
2018-06-24T21:45:00.749Z,2.50
2018-06-24T21:47:29.580Z,2.33
2018-06-24T21:49:58.228Z,2.80
2018-06-24T21:52:27.025Z,2.73
2018-06-24T21:54:55.754Z,2.60
2018-06-24T21:57:24.583Z,2.70
2018-06-24T21:59:53.365Z,3.33
2018-06-24T22:02:23.350Z,2.20
2018-06-24T22:04:53.212Z,2.20
2018-06-24T22:07:22.358Z,2.50
2018-06-24T22:09:51.695Z,2.87
2018-06-24T22:12:20.611Z,2.00
2018-06-24T22:14:50.102Z,2.70
2018-06-24T22:17:19.058Z,2.87
2018-06-24T22:19:48.015Z,2.50
2018-06-24T22:22:16.924Z,2.20
2018-06-24T22:24:45.727Z,2.37
2018-06-24T22:27:14.404Z,1.77
2018-06-24T22:29:43.216Z,2.40
2018-06-24T22:32:12.205Z,2.10
2018-06-24T22:34:41.040Z,2.00
2018-06-24T22:37:09.814Z,2.13
2018-06-24T22:39:38.651Z,2.63
2018-06-24T22:42:09.659Z,2.40
2018-06-24T22:44:38.602Z,2.47
2018-06-24T22:47:07.516Z,2.00
2018-06-24T22:49:36.616Z,2.33
2018-06-24T22:52:05.602Z,1.80
2018-06-24T22:54:34.531Z,1.87
2018-06-24T23:00:10.073Z,2.53
2018-06-24T23:02:39.437Z,1.63
2018-06-24T23:05:08.829Z,1.63
2018-06-24T23:07:37.772Z,2.10
2018-06-24T23:10:06.760Z,1.53
2018-06-24T23:12:35.779Z,2.20
2018-06-24T23:15:05.284Z,1.80
2018-06-24T23:17:34.182Z,1.50
2018-06-24T23:20:03.169Z,2.10
2018-06-24T23:22:32.091Z,2.00
2018-06-24T23:25:00.958Z,2.20
2018-06-24T23:27:29.810Z,2.20
2018-06-24T23:29:58.789Z,1.73
2018-06-24T23:32:28.077Z,2.13
2018-06-24T23:35:03.601Z,1.90
2018-06-24T23:37:32.556Z,2.00
2018-06-24T23:40:01.293Z,2.03
2018-06-24T23:42:30.246Z,2.30
2018-06-24T23:44:59.143Z,1.90
2018-06-24T23:47:28.115Z,2.10
2018-06-24T23:49:57.301Z,1.90
2018-06-24T23:52:26.228Z,2.17
2018-06-24T23:54:55.068Z,2.20
2018-06-24T23:57:24.020Z,2.03
2018-06-24T23:59:53.030Z,2.07
